createdAt,value
2023-04-25T00:00:12.357Z,0
2023-04-25T00:01:12.945Z,0
2023-04-25T00:02:13.720Z,0
2023-04-25T00:03:14.429Z,0
2023-04-25T00:04:15.242Z,0
2023-04-25T00:05:16.071Z,0
2023-04-25T00:06:16.807Z,0
2023-04-25T00:07:17.399Z,0
2023-04-25T00:08:17.993Z,0
2023-04-25T00:09:18.589Z,0
2023-04-25T00:10:19.188Z,0
2023-04-25T00:11:19.812Z,0
2023-04-25T00:12:20.415Z,0
2023-04-25T00:13:21.011Z,0
2023-04-25T00:14:21.626Z,0
2023-04-25T00:15:22.218Z,0
2023-04-25T00:16:22.818Z,0
2023-04-25T00:17:23.411Z,0
2023-04-25T00:18:23.989Z,0
2023-04-25T00:19:24.575Z,0
2023-04-25T00:20:25.185Z,0
2023-04-25T00:21:25.767Z,0
2023-04-25T00:22:26.368Z,0
2023-04-25T00:23:26.978Z,0
2023-04-25T00:24:27.575Z,0
2023-04-25T00:25:28.169Z,0
2023-04-25T00:26:28.770Z,0
2023-04-25T00:27:29.363Z,0
2023-04-25T00:28:29.956Z,0
2023-04-25T00:29:30.570Z,0
2023-04-25T00:30:31.163Z,0
2023-04-25T00:31:31.858Z,0
2023-04-25T00:32:32.479Z,0
2023-04-25T00:33:33.041Z,0
2023-04-25T00:34:33.637Z,0
2023-04-25T00:35:34.240Z,0
2023-04-25T00:36:34.828Z,0
2023-04-25T00:37:35.428Z,0
2023-04-25T00:38:36.037Z,0
2023-04-25T00:39:36.657Z,0
2023-04-25T00:40:37.268Z,0
2023-04-25T00:41:37.864Z,0
2023-04-25T00:42:38.458Z,0
2023-04-25T00:43:39.051Z,0
2023-04-25T00:44:39.650Z,0
2023-04-25T00:45:40.252Z,0
2023-04-25T00:46:40.939Z,0
2023-04-25T00:47:41.561Z,0
2023-04-25T00:48:42.131Z,0
2023-04-25T00:49:42.751Z,0
2023-04-25T00:50:43.340Z,0
2023-04-25T00:51:43.945Z,0
2023-04-25T00:52:44.532Z,0
2023-04-25T00:53:45.124Z,0
2023-04-25T00:54:45.719Z,0
2023-04-25T00:55:46.312Z,0
2023-04-25T00:56:46.911Z,0
2023-04-25T00:57:47.506Z,0
2023-04-25T00:58:48.102Z,0
2023-04-25T00:59:48.695Z,0
2023-04-25T01:00:49.354Z,0
2023-04-25T01:01:49.925Z,0
2023-04-25T01:02:50.585Z,0
2023-04-25T01:03:51.510Z,0
2023-04-25T01:04:52.310Z,0
2023-04-25T01:05:52.905Z,0
2023-04-25T01:06:53.517Z,0
2023-04-25T01:07:54.114Z,0
2023-04-25T01:08:54.708Z,0
2023-04-25T01:09:55.328Z,0
2023-04-25T01:10:55.938Z,0
2023-04-25T01:11:56.574Z,0
2023-04-25T01:12:57.158Z,0
2023-04-25T01:13:57.752Z,0
2023-04-25T01:14:58.367Z,0
2023-04-25T01:15:58.982Z,0
2023-04-25T01:16:59.706Z,0
2023-04-25T01:18:00.315Z,0
2023-04-25T01:19:00.892Z,0
2023-04-25T01:20:01.496Z,0
2023-04-25T01:21:02.114Z,0
2023-04-25T01:22:02.699Z,0
2023-04-25T01:23:03.315Z,0
2023-04-25T01:24:03.911Z,0
2023-04-25T01:25:04.511Z,0
2023-04-25T01:26:05.124Z,0
2023-04-25T01:27:05.719Z,0
2023-04-25T01:28:06.311Z,0
2023-04-25T01:29:06.911Z,0
2023-04-25T01:30:07.500Z,0
2023-04-25T01:31:08.098Z,0
2023-04-25T01:32:08.734Z,0
2023-04-25T01:33:09.371Z,0
2023-04-25T01:34:09.928Z,0
2023-04-25T01:35:10.589Z,0
2023-04-25T01:36:11.131Z,0
2023-04-25T01:37:11.730Z,0
2023-04-25T01:38:12.345Z,0
2023-04-25T01:39:12.937Z,0
2023-04-25T01:40:13.550Z,0
2023-04-25T01:41:14.139Z,0
2023-04-25T01:42:14.729Z,0
2023-04-25T01:43:15.335Z,0
2023-04-25T01:44:15.910Z,0
2023-04-25T01:45:16.514Z,0
2023-04-25T01:46:17.142Z,0
2023-04-25T01:47:17.730Z,0
2023-04-25T01:48:18.328Z,0
2023-04-25T01:49:18.923Z,0
2023-04-25T01:50:19.510Z,0
2023-04-25T01:51:20.110Z,0
2023-04-25T01:52:20.721Z,0
2023-04-25T01:53:21.315Z,0
2023-04-25T01:54:21.908Z,0
2023-04-25T01:55:22.501Z,0
2023-04-25T01:56:23.099Z,0
2023-04-25T01:57:23.691Z,0
2023-04-25T01:58:24.284Z,0
2023-04-25T01:59:24.879Z,0
2023-04-25T02:00:25.469Z,0
2023-04-25T02:01:26.116Z,0
2023-04-25T02:02:26.831Z,0
2023-04-25T02:03:27.580Z,0
2023-04-25T02:04:28.169Z,0
2023-04-25T02:05:28.806Z,0
2023-04-25T02:06:29.399Z,0
2023-04-25T02:07:30.001Z,0
2023-04-25T02:08:30.589Z,0
2023-04-25T02:09:31.185Z,0
2023-04-25T02:10:31.787Z,0
2023-04-25T02:11:32.376Z,0
2023-04-25T02:12:32.979Z,0
2023-04-25T02:13:33.575Z,0
2023-04-25T02:14:34.172Z,0
2023-04-25T02:15:34.802Z,0
2023-04-25T02:16:35.488Z,0
2023-04-25T02:17:36.089Z,0
2023-04-25T02:18:36.659Z,0
2023-04-25T02:19:37.258Z,0
2023-04-25T02:20:37.866Z,0
2023-04-25T02:21:38.472Z,0
2023-04-25T02:22:39.056Z,0
2023-04-25T02:23:39.655Z,0
2023-04-25T02:24:40.246Z,0
2023-04-25T02:25:40.894Z,0
2023-04-25T02:26:41.474Z,0
2023-04-25T02:27:42.089Z,0
2023-04-25T02:28:42.668Z,0
2023-04-25T02:29:43.265Z,0
2023-04-25T02:30:43.875Z,0
2023-04-25T02:31:44.472Z,0
2023-04-25T02:32:45.118Z,0
2023-04-25T02:33:45.696Z,0
2023-04-25T02:34:46.283Z,0
2023-04-25T02:35:46.878Z,0
2023-04-25T02:36:47.473Z,0
2023-04-25T02:37:48.085Z,0
2023-04-25T02:38:48.666Z,0
2023-04-25T02:39:49.260Z,0
2023-04-25T02:40:49.869Z,0
2023-04-25T02:41:50.450Z,0
2023-04-25T02:42:51.074Z,0
2023-04-25T02:43:52.015Z,0
2023-04-25T02:44:52.878Z,0
2023-04-25T02:45:53.471Z,0
2023-04-25T02:46:54.176Z,0
2023-04-25T02:47:54.705Z,0
2023-04-25T02:48:55.286Z,0
2023-04-25T02:49:55.895Z,0
2023-04-25T02:50:56.476Z,0
2023-04-25T02:51:57.075Z,0
2023-04-25T02:52:57.702Z,0
2023-04-25T02:53:58.293Z,0
2023-04-25T02:54:58.885Z,0
2023-04-25T02:55:59.521Z,0
2023-04-25T02:57:00.147Z,0
2023-04-25T02:58:00.721Z,0
2023-04-25T02:59:01.331Z,0
2023-04-25T03:00:01.926Z,0
2023-04-25T03:01:02.560Z,0
2023-04-25T03:02:03.152Z,0
2023-04-25T03:03:03.843Z,0
2023-04-25T03:04:04.505Z,0
2023-04-25T03:05:05.090Z,0
2023-04-25T03:06:05.703Z,0
2023-04-25T03:07:06.310Z,0
2023-04-25T03:08:06.916Z,0
2023-04-25T03:09:07.521Z,0
2023-04-25T03:10:08.096Z,0
2023-04-25T03:11:08.697Z,0
2023-04-25T03:12:09.288Z,0
2023-04-25T03:13:09.909Z,0
2023-04-25T03:14:10.480Z,0
2023-04-25T03:15:11.073Z,0
2023-04-25T03:16:11.704Z,0
2023-04-25T03:17:12.260Z,0
2023-04-25T03:18:12.852Z,0
2023-04-25T03:19:13.453Z,0
2023-04-25T03:20:14.047Z,0
2023-04-25T03:21:14.678Z,0
2023-04-25T03:22:15.270Z,0
2023-04-25T03:23:15.867Z,0
2023-04-25T03:24:16.483Z,0
2023-04-25T03:25:17.069Z,0
2023-04-25T03:26:17.665Z,0
2023-04-25T03:27:18.266Z,0
2023-04-25T03:28:18.908Z,0
2023-04-25T03:29:19.498Z,0
2023-04-25T03:30:20.093Z,0
2023-04-25T03:31:20.716Z,0
2023-04-25T03:32:21.326Z,0
2023-04-25T03:33:21.916Z,0
2023-04-25T03:34:22.519Z,0
2023-04-25T03:35:23.110Z,0
2023-04-25T03:36:23.721Z,4
2023-04-25T03:37:24.319Z,0
2023-04-25T03:38:24.915Z,4
2023-04-25T03:39:25.517Z,4
2023-04-25T03:40:26.104Z,4
2023-04-25T03:41:26.701Z,4
2023-04-25T03:42:27.289Z,4
2023-04-25T03:43:27.893Z,4
2023-04-25T03:44:28.502Z,8
2023-04-25T03:45:29.132Z,8
2023-04-25T03:46:29.736Z,12
2023-04-25T03:47:30.337Z,12
2023-04-25T03:48:30.910Z,12
2023-04-25T03:49:31.521Z,16
2023-04-25T03:50:32.099Z,16
2023-04-25T03:51:32.697Z,12
2023-04-25T03:52:33.290Z,8
2023-04-25T03:53:33.880Z,8
2023-04-25T03:54:34.476Z,12
2023-04-25T03:55:35.076Z,12
2023-04-25T03:56:35.669Z,12
2023-04-25T03:57:36.264Z,16
2023-04-25T03:58:36.862Z,20
2023-04-25T03:59:37.459Z,20
2023-04-25T04:00:38.087Z,28
2023-04-25T04:01:38.673Z,36
2023-04-25T04:02:39.464Z,52
2023-04-25T04:03:40.091Z,72
2023-04-25T04:04:41.161Z,80
2023-04-25T04:05:42.027Z,88
2023-04-25T04:06:42.614Z,100
2023-04-25T04:07:43.213Z,100
2023-04-25T04:08:43.832Z,100
2023-04-25T04:09:44.406Z,108
2023-04-25T04:10:45.008Z,128
2023-04-25T04:11:45.599Z,144
2023-04-25T04:12:46.192Z,148
2023-04-25T04:13:46.793Z,156
2023-04-25T04:14:47.388Z,176
2023-04-25T04:15:48.014Z,228
2023-04-25T04:16:48.584Z,288
2023-04-25T04:17:49.234Z,316
2023-04-25T04:18:49.798Z,312
2023-04-25T04:19:50.394Z,312
2023-04-25T04:20:51.016Z,308
2023-04-25T04:21:51.642Z,344
2023-04-25T04:22:52.235Z,380
2023-04-25T04:23:52.850Z,396
2023-04-25T04:24:53.454Z,424
2023-04-25T04:25:54.046Z,440
2023-04-25T04:26:54.654Z,420
2023-04-25T04:27:55.265Z,420
2023-04-25T04:28:55.881Z,460
2023-04-25T04:29:56.477Z,500
2023-04-25T04:30:57.122Z,532
2023-04-25T04:31:57.757Z,576
2023-04-25T04:32:58.382Z,616
2023-04-25T04:33:58.948Z,620
2023-04-25T04:34:59.547Z,644
2023-04-25T04:36:00.185Z,788
2023-04-25T04:37:00.757Z,1060
2023-04-25T04:38:01.358Z,1324
2023-04-25T04:39:01.970Z,1508
2023-04-25T04:40:02.571Z,1548
2023-04-25T04:41:03.166Z,1460
2023-04-25T04:42:03.764Z,1320
2023-04-25T04:43:04.361Z,1272
2023-04-25T04:44:06.156Z,1376
2023-04-25T04:45:06.551Z,1564
2023-04-25T04:46:07.202Z,1724
2023-04-25T04:47:07.760Z,1724
2023-04-25T04:48:08.457Z,1688
2023-04-25T04:49:08.997Z,1608
2023-04-25T04:50:09.593Z,1428
2023-04-25T04:51:10.199Z,1332
2023-04-25T04:52:10.804Z,1404
2023-04-25T04:53:11.391Z,1584
2023-04-25T04:54:11.990Z,1836
2023-04-25T04:55:12.594Z,2096
2023-04-25T04:56:13.210Z,2432
2023-04-25T04:57:13.808Z,2864
2023-04-25T04:58:14.408Z,3272
2023-04-25T04:59:15.022Z,3520
2023-04-25T05:00:15.606Z,3692
2023-04-25T05:01:16.251Z,3748
2023-04-25T05:02:16.816Z,3752
2023-04-25T05:03:17.691Z,3920
2023-04-25T05:04:18.506Z,4080
2023-04-25T05:05:19.038Z,4024
2023-04-25T05:06:19.633Z,3756
2023-04-25T05:07:20.232Z,3492
2023-04-25T05:08:20.830Z,3356
2023-04-25T05:09:21.430Z,3328
2023-04-25T05:10:22.028Z,3404
2023-04-25T05:11:22.627Z,3612
2023-04-25T05:12:23.228Z,3984
2023-04-25T05:13:23.848Z,4580
2023-04-25T05:14:24.448Z,5380
2023-04-25T05:15:25.046Z,5948
2023-04-25T05:16:25.694Z,6240
2023-04-25T05:17:26.287Z,6444
2023-04-25T05:18:26.876Z,6496
2023-04-25T05:19:27.479Z,6396
2023-04-25T05:20:28.072Z,6392
2023-04-25T05:21:28.679Z,6448
2023-04-25T05:22:29.297Z,6436
2023-04-25T05:23:29.893Z,6368
2023-04-25T05:24:30.510Z,6240
2023-04-25T05:25:31.172Z,6408
2023-04-25T05:26:31.725Z,6724
2023-04-25T05:27:32.327Z,6964
2023-04-25T05:28:32.928Z,7028
2023-04-25T05:29:33.524Z,7124
2023-04-25T05:30:34.128Z,7392
2023-04-25T05:31:34.799Z,7856
2023-04-25T05:32:35.373Z,8096
2023-04-25T05:33:35.952Z,8260
2023-04-25T05:34:36.561Z,8444
2023-04-25T05:35:37.161Z,8620
2023-04-25T05:36:37.751Z,8792
2023-04-25T05:37:38.401Z,8892
2023-04-25T05:38:39.005Z,9064
2023-04-25T05:39:39.621Z,9332
2023-04-25T05:40:40.224Z,9512
2023-04-25T05:41:40.838Z,9640
2023-04-25T05:42:41.433Z,9792
2023-04-25T05:43:42.034Z,9904
2023-04-25T05:44:42.655Z,10204
2023-04-25T05:45:43.327Z,10672
2023-04-25T05:46:43.924Z,10964
2023-04-25T05:47:44.530Z,11228
2023-04-25T05:48:45.141Z,11372
2023-04-25T05:49:45.753Z,11716
2023-04-25T05:50:46.361Z,12108
2023-04-25T05:51:46.965Z,12460
2023-04-25T05:52:47.566Z,12696
2023-04-25T05:53:48.399Z,12812
2023-04-25T05:54:49.173Z,12964
2023-04-25T05:55:49.773Z,13264
2023-04-25T05:56:50.378Z,13808
2023-04-25T05:57:51.793Z,14456
2023-04-25T05:58:52.407Z,14624
2023-04-25T05:59:53.013Z,14212
2023-04-25T06:00:53.606Z,13756
2023-04-25T06:01:54.226Z,13460
2023-04-25T06:02:54.925Z,13292
2023-04-25T06:03:55.956Z,13232
2023-04-25T06:04:56.996Z,13332
2023-04-25T06:05:57.842Z,13544
2023-04-25T06:06:58.483Z,13764
2023-04-25T06:07:59.099Z,14060
2023-04-25T06:08:59.710Z,14304
2023-04-25T06:10:00.310Z,14444
2023-04-25T06:11:00.912Z,14668
2023-04-25T06:12:01.502Z,14988
2023-04-25T06:13:02.104Z,15300
2023-04-25T06:14:02.702Z,15416
2023-04-25T06:15:06.277Z,15236
2023-04-25T06:16:04.078Z,15156
2023-04-25T06:17:04.633Z,15152
2023-04-25T06:18:05.350Z,14496
2023-04-25T06:19:05.921Z,13920
2023-04-25T06:20:07.041Z,13824
2023-04-25T06:21:07.673Z,13964
2023-04-25T06:22:08.231Z,13560
2023-04-25T06:23:08.906Z,13860
2023-04-25T06:24:09.468Z,13812
2023-04-25T06:25:10.053Z,13784
2023-04-25T06:26:10.676Z,14384
2023-04-25T06:27:11.277Z,14888
2023-04-25T06:28:11.894Z,14992
2023-04-25T06:29:12.499Z,14248
2023-04-25T06:30:13.115Z,14232
2023-04-25T06:31:13.748Z,15188
2023-04-25T06:32:14.319Z,15452
2023-04-25T06:33:15.022Z,15424
2023-04-25T06:34:15.634Z,14820
2023-04-25T06:35:16.239Z,14624
2023-04-25T06:36:16.833Z,14824
2023-04-25T06:37:17.454Z,14592
2023-04-25T06:38:18.059Z,16688
2023-04-25T06:39:18.655Z,17648
2023-04-25T06:40:19.266Z,18368
2023-04-25T06:41:19.866Z,17468
2023-04-25T06:42:20.477Z,17168
2023-04-25T06:43:21.086Z,18528
2023-04-25T06:44:21.680Z,19008
2023-04-25T06:45:22.299Z,17348
2023-04-25T06:46:22.934Z,17920
2023-04-25T06:47:23.566Z,18848
2023-04-25T06:48:24.116Z,19200
2023-04-25T06:49:24.748Z,19840
2023-04-25T06:50:25.342Z,19712
2023-04-25T06:51:25.960Z,19936
2023-04-25T06:52:26.574Z,20096
2023-04-25T06:53:27.178Z,19040
2023-04-25T06:54:27.785Z,18528
2023-04-25T06:55:28.381Z,17760
2023-04-25T06:56:28.982Z,16428
2023-04-25T06:57:29.598Z,17112
2023-04-25T06:58:30.200Z,18624
2023-04-25T06:59:30.806Z,21664
2023-04-25T07:00:31.465Z,23616
2023-04-25T07:01:32.020Z,23520
2023-04-25T07:02:32.683Z,23392
2023-04-25T07:03:33.381Z,23936
2023-04-25T07:04:34.257Z,23776
2023-04-25T07:05:34.957Z,21632
2023-04-25T07:06:35.567Z,22048
2023-04-25T07:07:36.173Z,22752
2023-04-25T07:08:36.765Z,21152
2023-04-25T07:09:37.372Z,20160
2023-04-25T07:10:37.968Z,17420
2023-04-25T07:11:38.593Z,15412
2023-04-25T07:12:39.188Z,15860
2023-04-25T07:13:39.790Z,19232
2023-04-25T07:14:40.390Z,21728
2023-04-25T07:15:40.994Z,23872
2023-04-25T07:16:41.666Z,25408
2023-04-25T07:17:42.286Z,26368
2023-04-25T07:18:42.867Z,26912
2023-04-25T07:19:43.469Z,27392
2023-04-25T07:20:44.072Z,27968
2023-04-25T07:21:44.669Z,28768
2023-04-25T07:22:45.275Z,28928
2023-04-25T07:23:45.966Z,28256
2023-04-25T07:24:46.500Z,27456
2023-04-25T07:25:47.110Z,26912
2023-04-25T07:26:47.724Z,28288
2023-04-25T07:27:48.327Z,30176
2023-04-25T07:28:49.070Z,31680
2023-04-25T07:29:49.757Z,32576
2023-04-25T07:30:50.360Z,32224
2023-04-25T07:31:51.016Z,32768
2023-04-25T07:32:51.621Z,31872
2023-04-25T07:33:52.190Z,31936
2023-04-25T07:34:52.803Z,33152
2023-04-25T07:35:53.406Z,33216
2023-04-25T07:36:54.004Z,33504
2023-04-25T07:37:54.606Z,33632
2023-04-25T07:38:55.208Z,34016
2023-04-25T07:39:55.817Z,33600
2023-04-25T07:40:56.414Z,32928
2023-04-25T07:41:57.012Z,32768
2023-04-25T07:42:57.639Z,31776
2023-04-25T07:43:58.239Z,31104
2023-04-25T07:44:58.869Z,30592
2023-04-25T07:45:59.519Z,30944
2023-04-25T07:47:01.372Z,31936
2023-04-25T07:48:01.728Z,32384
2023-04-25T07:49:02.338Z,33024
2023-04-25T07:50:02.932Z,33376
2023-04-25T07:51:03.529Z,33728
2023-04-25T07:52:04.158Z,33600
2023-04-25T07:53:04.774Z,32960
2023-04-25T07:54:05.401Z,31200
2023-04-25T07:55:06.010Z,32256
2023-04-25T07:56:06.631Z,33024
2023-04-25T07:57:07.259Z,33408
2023-04-25T07:58:07.870Z,32768
2023-04-25T07:59:08.473Z,31968
2023-04-25T08:00:09.075Z,32064
2023-04-25T08:01:09.676Z,47744
2023-04-25T08:02:10.313Z,39200
2023-04-25T08:03:11.096Z,37472
2023-04-25T08:04:11.893Z,41728
2023-04-25T08:05:12.824Z,36256
2023-04-25T08:06:13.879Z,31616
2023-04-25T08:07:14.512Z,46144
2023-04-25T08:08:15.129Z,48288
2023-04-25T08:09:15.728Z,56320
2023-04-25T08:10:16.330Z,60800
2023-04-25T08:11:16.932Z,68320
2023-04-25T08:12:17.555Z,75104
2023-04-25T08:13:18.160Z,69920
2023-04-25T08:14:18.807Z,69344
2023-04-25T08:15:19.389Z,36032
2023-04-25T08:16:20.049Z,26976
2023-04-25T08:17:20.617Z,22912
2023-04-25T08:18:21.290Z,20992
2023-04-25T08:19:21.928Z,20448
2023-04-25T08:20:22.568Z,21472
2023-04-25T08:21:23.203Z,24672
2023-04-25T08:22:23.801Z,25344
2023-04-25T08:23:24.402Z,23968
2023-04-25T08:24:25.004Z,23488
2023-04-25T08:25:25.603Z,24608
2023-04-25T08:26:26.340Z,25952
2023-04-25T08:27:26.899Z,26016
2023-04-25T08:28:27.524Z,25120
2023-04-25T08:29:28.097Z,25440
2023-04-25T08:30:28.702Z,28160
2023-04-25T08:31:29.327Z,29728
2023-04-25T08:32:31.038Z,29472
2023-04-25T08:33:31.500Z,26784
2023-04-25T08:34:32.110Z,23424
2023-04-25T08:35:32.703Z,21824
2023-04-25T08:36:39.237Z,21856
2023-04-25T08:37:33.918Z,24608
2023-04-25T08:38:34.549Z,29440
2023-04-25T08:39:35.150Z,55360
2023-04-25T08:40:35.756Z,62144
2023-04-25T08:41:36.350Z,23360
2023-04-25T08:42:36.979Z,19712
2023-04-25T08:43:37.572Z,19904
2023-04-25T08:44:38.170Z,20608
2023-04-25T08:45:38.787Z,21248
2023-04-25T08:46:39.403Z,23296
2023-04-25T08:47:40.012Z,29664
2023-04-25T08:48:40.595Z,62464
2023-04-25T08:49:41.197Z,97024
2023-04-25T08:50:41.853Z,33856
2023-04-25T08:51:42.458Z,27296
2023-04-25T08:52:43.053Z,20096
2023-04-25T08:53:43.659Z,16148
2023-04-25T08:54:44.513Z,14768
2023-04-25T08:55:44.867Z,14552
2023-04-25T08:56:45.469Z,14408
2023-04-25T08:57:46.082Z,14096
2023-04-25T08:58:46.704Z,14004
2023-04-25T08:59:47.281Z,15208
2023-04-25T09:00:47.890Z,18112
2023-04-25T09:01:48.521Z,20256
2023-04-25T09:02:49.287Z,20864
2023-04-25T09:03:49.873Z,21312
2023-04-25T09:04:50.475Z,25280
2023-04-25T09:05:51.082Z,30464
2023-04-25T09:06:51.700Z,35776
2023-04-25T09:07:52.309Z,103712
2023-04-25T09:08:52.925Z,48576
2023-04-25T09:09:53.535Z,40864
2023-04-25T09:10:54.151Z,39712
2023-04-25T09:11:54.753Z,35072
2023-04-25T09:12:55.376Z,32128
2023-04-25T09:13:55.977Z,29280
2023-04-25T09:14:56.578Z,26880
2023-04-25T09:15:57.180Z,25664
2023-04-25T09:16:57.904Z,24736
2023-04-25T09:17:58.517Z,25248
2023-04-25T09:18:59.223Z,27008
2023-04-25T09:19:59.821Z,29408
2023-04-25T09:21:02.997Z,31520
2023-04-25T09:22:02.032Z,33472
2023-04-25T09:23:02.634Z,35616
2023-04-25T09:24:03.240Z,38432
2023-04-25T09:25:03.861Z,41152
2023-04-25T09:26:04.459Z,42400
2023-04-25T09:27:05.084Z,39360
2023-04-25T09:28:05.702Z,36256
2023-04-25T09:29:06.332Z,33696
2023-04-25T09:30:06.930Z,30976
2023-04-25T09:31:07.534Z,28384
2023-04-25T09:32:08.173Z,26912
2023-04-25T09:33:08.820Z,25952
2023-04-25T09:34:09.433Z,23488
2023-04-25T09:35:10.038Z,20000
2023-04-25T09:36:10.638Z,18208
2023-04-25T09:37:11.262Z,17388
2023-04-25T09:38:12.863Z,16060
2023-04-25T09:39:13.456Z,14608
2023-04-25T09:40:14.050Z,14124
2023-04-25T09:41:14.650Z,14924
2023-04-25T09:42:15.248Z,16900
2023-04-25T09:43:15.849Z,20096
2023-04-25T09:44:16.448Z,22784
2023-04-25T09:45:17.044Z,25024
2023-04-25T09:46:17.737Z,26496
2023-04-25T09:47:18.260Z,26912
2023-04-25T09:48:18.865Z,26432
2023-04-25T09:49:19.488Z,25376
2023-04-25T09:50:20.130Z,24768
2023-04-25T09:51:20.702Z,24256
2023-04-25T09:52:22.349Z,24064
2023-04-25T09:53:22.894Z,24416
2023-04-25T09:54:23.495Z,24992
2023-04-25T09:55:24.116Z,26016
2023-04-25T09:56:24.720Z,27936
2023-04-25T09:57:25.340Z,30304
2023-04-25T09:58:25.921Z,32288
2023-04-25T09:59:26.525Z,33440
2023-04-25T10:00:27.128Z,34368
2023-04-25T10:01:27.757Z,33952
2023-04-25T10:02:28.481Z,36608
2023-04-25T10:03:29.270Z,62560
2023-04-25T10:04:31.544Z,49664
2023-04-25T10:05:31.450Z,38336
2023-04-25T10:06:32.053Z,39840
2023-04-25T10:07:32.665Z,88128
2023-04-25T10:08:33.289Z,96448
2023-04-25T10:09:33.890Z,116768
2023-04-25T10:10:34.497Z,43200
2023-04-25T10:11:35.096Z,59328
2023-04-25T10:12:35.724Z,130560
2023-04-25T10:13:36.302Z,153728
2023-04-25T10:14:36.903Z,136896
2023-04-25T10:15:39.909Z,59744
2023-04-25T10:16:39.100Z,38592
2023-04-25T10:17:39.761Z,34432
2023-04-25T10:18:40.324Z,30304
2023-04-25T10:19:40.928Z,27104
2023-04-25T10:20:41.525Z,25280
2023-04-25T10:21:42.125Z,25184
2023-04-25T10:22:42.731Z,103744
2023-04-25T10:23:43.331Z,108064
2023-04-25T10:24:43.930Z,121888
2023-04-25T10:25:44.531Z,141312
2023-04-25T10:26:45.135Z,148448
2023-04-25T10:27:45.742Z,137152
2023-04-25T10:28:46.361Z,128640
2023-04-25T10:29:46.961Z,131648
2023-04-25T10:30:47.619Z,134976
2023-04-25T10:31:48.213Z,139616
2023-04-25T10:32:48.785Z,149664
2023-04-25T10:33:49.672Z,71712
2023-04-25T10:34:50.330Z,45216
2023-04-25T10:35:50.928Z,129536
2023-04-25T10:36:51.534Z,50976
2023-04-25T10:37:52.132Z,47392
2023-04-25T10:38:52.745Z,46944
2023-04-25T10:39:53.355Z,46400
2023-04-25T10:40:53.960Z,45856
2023-04-25T10:41:54.562Z,38624
2023-04-25T10:42:55.162Z,42336
2023-04-25T10:43:55.784Z,46080
2023-04-25T10:44:56.391Z,153312
2023-04-25T10:45:57.010Z,159520
2023-04-25T10:46:57.690Z,46976
2023-04-25T10:47:58.263Z,32384
2023-04-25T10:48:58.837Z,25536
2023-04-25T10:49:59.436Z,20800
2023-04-25T10:51:00.056Z,18016
2023-04-25T10:52:00.654Z,16928
2023-04-25T10:53:01.258Z,18208
2023-04-25T10:54:01.859Z,21152
2023-04-25T10:55:02.457Z,25824
2023-04-25T10:56:03.054Z,32352
2023-04-25T10:57:03.661Z,40576
2023-04-25T10:58:04.259Z,54400
2023-04-25T10:59:04.861Z,72640
2023-04-25T11:00:05.462Z,71520
2023-04-25T11:01:06.138Z,93888
2023-04-25T11:02:06.807Z,69344
2023-04-25T11:03:07.661Z,76512
2023-04-25T11:04:08.588Z,56672
2023-04-25T11:05:09.267Z,49536
2023-04-25T11:06:09.833Z,42848
2023-04-25T11:07:10.436Z,38656
2023-04-25T11:08:11.181Z,36032
2023-04-25T11:09:11.791Z,34336
2023-04-25T11:10:12.382Z,33024
2023-04-25T11:11:13.001Z,31936
2023-04-25T11:12:13.601Z,30912
2023-04-25T11:13:14.207Z,30304
2023-04-25T11:14:14.805Z,30176
2023-04-25T11:15:15.415Z,30240
2023-04-25T11:16:23.614Z,30400
2023-04-25T11:17:16.721Z,30720
2023-04-25T11:18:17.308Z,31264
2023-04-25T11:19:17.894Z,31840
2023-04-25T11:20:18.485Z,32224
2023-04-25T11:21:19.087Z,32512
2023-04-25T11:22:19.682Z,32704
2023-04-25T11:23:20.280Z,33120
2023-04-25T11:24:20.884Z,33824
2023-04-25T11:25:21.485Z,35232
2023-04-25T11:26:22.086Z,37056
2023-04-25T11:27:22.741Z,38624
2023-04-25T11:28:23.642Z,39008
2023-04-25T11:29:24.901Z,38816
2023-04-25T11:30:25.509Z,38592
2023-04-25T11:31:26.197Z,38752
2023-04-25T11:32:27.792Z,39168
2023-04-25T11:33:27.440Z,39392
2023-04-25T11:34:28.224Z,39424
2023-04-25T11:35:28.822Z,39328
2023-04-25T11:36:29.427Z,39328
2023-04-25T11:37:30.020Z,39328
2023-04-25T11:38:30.619Z,38880
2023-04-25T11:39:31.256Z,38240
2023-04-25T11:40:31.845Z,37984
2023-04-25T11:41:32.440Z,38176
2023-04-25T11:42:33.037Z,39072
2023-04-25T11:43:34.216Z,40352
2023-04-25T11:44:35.401Z,42720
2023-04-25T11:45:35.905Z,46496
2023-04-25T11:46:36.496Z,52928
2023-04-25T11:47:37.092Z,178560
2023-04-25T11:48:37.672Z,145568
2023-04-25T11:49:38.274Z,111008
2023-04-25T11:50:38.943Z,92544
2023-04-25T11:51:39.502Z,146304
2023-04-25T11:52:40.124Z,81472
2023-04-25T11:53:40.737Z,119616
2023-04-25T11:54:41.339Z,160288
2023-04-25T11:55:41.962Z,73632
2023-04-25T11:56:42.625Z,75008
2023-04-25T11:57:43.188Z,60288
2023-04-25T11:58:43.786Z,78976
2023-04-25T11:59:44.388Z,116320
2023-04-25T12:00:50.389Z,81312
2023-04-25T12:01:46.584Z,113280
2023-04-25T12:02:47.305Z,126336
2023-04-25T12:03:48.084Z,154176
2023-04-25T12:04:48.571Z,151136
2023-04-25T12:05:49.316Z,141952
2023-04-25T12:06:50.158Z,127968
2023-04-25T12:07:50.747Z,126912
2023-04-25T12:08:51.639Z,136928
2023-04-25T12:09:52.327Z,144960
2023-04-25T12:10:52.926Z,146784
2023-04-25T12:11:53.576Z,122848
2023-04-25T12:12:54.134Z,155968
2023-04-25T12:13:54.749Z,72352
2023-04-25T12:14:55.338Z,121408
2023-04-25T12:15:55.973Z,40320
2023-04-25T12:16:56.560Z,117664
2023-04-25T12:17:57.172Z,142368
2023-04-25T12:18:57.813Z,46400
2023-04-25T12:19:58.395Z,163840
2023-04-25T12:20:59.080Z,83520
2023-04-25T12:21:59.771Z,170944
2023-04-25T12:23:00.326Z,166848
2023-04-25T12:24:00.934Z,54816
2023-04-25T12:25:01.541Z,91104
2023-04-25T12:26:02.150Z,60128
2023-04-25T12:27:02.759Z,59168
2023-04-25T12:28:03.384Z,52064
2023-04-25T12:29:03.987Z,48480
2023-04-25T12:30:04.591Z,45856
2023-04-25T12:31:05.275Z,44928
2023-04-25T12:32:06.062Z,44416
2023-04-25T12:33:06.680Z,42848
2023-04-25T12:34:07.291Z,41600
2023-04-25T12:35:07.894Z,40448
2023-04-25T12:36:08.514Z,39168
2023-04-25T12:37:09.116Z,38656
2023-04-25T12:38:09.731Z,40064
2023-04-25T12:39:10.333Z,43744
2023-04-25T12:40:10.946Z,50144
2023-04-25T12:41:11.534Z,59296
2023-04-25T12:42:12.138Z,145824
2023-04-25T12:43:12.755Z,135968
2023-04-25T12:44:13.341Z,116320
2023-04-25T12:45:13.962Z,53504
2023-04-25T12:46:14.592Z,50464
2023-04-25T12:47:15.184Z,66720
2023-04-25T12:48:15.768Z,113568
2023-04-25T12:50:16.987Z,41184
2023-04-25T12:51:17.587Z,41344
2023-04-25T12:52:18.185Z,40736
2023-04-25T12:53:18.796Z,34912
2023-04-25T12:54:19.407Z,28800
2023-04-25T12:55:20.014Z,23008
2023-04-25T12:56:22.415Z,18880
2023-04-25T12:57:22.206Z,17320
2023-04-25T12:58:22.805Z,16492
2023-04-25T12:59:23.483Z,14604
2023-04-25T13:00:24.054Z,12656
2023-04-25T13:01:24.761Z,11936
2023-04-25T13:02:25.338Z,12388
2023-04-25T13:03:26.190Z,13956
2023-04-25T13:04:26.986Z,16476
2023-04-25T13:05:27.621Z,20864
2023-04-25T13:06:28.211Z,27328
2023-04-25T13:07:28.812Z,43232
2023-04-25T13:08:29.413Z,51008
2023-04-25T13:09:30.022Z,52800
2023-04-25T13:10:30.618Z,53344
2023-04-25T13:12:31.834Z,154560
2023-04-25T13:13:32.430Z,146976
2023-04-25T13:14:33.035Z,135200
2023-04-25T13:15:33.664Z,122176
2023-04-25T13:16:34.307Z,120704
2023-04-25T13:17:34.906Z,138464
2023-04-25T13:18:35.498Z,120800
2023-04-25T13:19:36.100Z,69440
2023-04-25T13:20:36.699Z,134816
2023-04-25T13:21:37.306Z,155648
2023-04-25T13:22:37.983Z,104672
2023-04-25T13:23:38.582Z,113088
2023-04-25T13:24:39.209Z,107744
2023-04-25T13:25:39.827Z,116032
2023-04-25T13:26:40.452Z,126080
2023-04-25T13:27:41.058Z,124704
2023-04-25T13:28:42.788Z,114336
2023-04-25T13:29:43.388Z,110976
2023-04-25T13:30:43.950Z,122336
2023-04-25T13:31:44.609Z,141920
2023-04-25T13:32:45.221Z,162656
2023-04-25T13:33:45.770Z,164576
2023-04-25T13:34:46.381Z,147712
2023-04-25T13:35:46.972Z,127712